< < Back
Terminal Aerodrome Forecast


Current Version              Previous Versions:   1  2  3  4  5  6  7  8  9  

Terminal Aerodrome Forecast

657
FTUS44 KBMX 231100
TAFMGM
TAF
KMGM 231127Z 2312/2412 32006KT P6SM SCT050
     FM240300 00000KT P6SM SCT200=

Latest METAR

144
SAUS80 KWBC 231300 RRB
MTRMGM
METAR KMGM 231253Z 31004KT 10SM CLR 28/23 A3002 RMK AO2 SLP163
T02830228


USA.gov is the U.S. government's official web portal to all federal, state and local government web resources and services.